sensor_id;sensor_type;location;lat;lon;timestamp;P1;durP1;ratioP1;P2;durP2;ratioP2
51515;SDS011;37603;55.614;37.326;2022-09-21T00:10:58;13.4;;;10.6;;
51515;SDS011;37603;55.614;37.326;2022-09-21T00:16:57;15.1;;;10.4;;
51515;SDS011;37603;55.614;37.326;2022-09-21T00:22:56;11.7;;;9.4;;
51515;SDS011;37603;55.614;37.326;2022-09-21T00:28:55;11.5;;;9.3;;
51515;SDS011;37603;55.614;37.326;2022-09-21T00:34:54;13.8;;;10.8;;
51515;SDS011;37603;55.614;37.326;2022-09-21T00:40:52;12.9;;;10.9;;
51515;SDS011;37603;55.614;37.326;2022-09-21T00:46:52;11.5;;;9.3;;
51515;SDS011;37603;55.614;37.326;2022-09-21T00:52:51;13.2;;;9.9;;
51515;SDS011;37603;55.614;37.326;2022-09-21T00:58:50;12.9;;;9.2;;
51515;SDS011;37603;55.614;37.326;2022-09-21T01:04:48;13.5;;;9.4;;
51515;SDS011;37603;55.614;37.326;2022-09-21T01:10:52;14.1;;;9.7;;
51515;SDS011;37603;55.614;37.326;2022-09-21T01:16:47;13.5;;;10.5;;
51515;SDS011;37603;55.614;37.326;2022-09-21T01:22:47;16.3;;;13.1;;
51515;SDS011;37603;55.614;37.326;2022-09-21T01:34:43;16.6;;;12.9;;
51515;SDS011;37603;55.614;37.326;2022-09-21T01:40:42;19.3;;;15.3;;
51515;SDS011;37603;55.614;37.326;2022-09-21T01:46:40;17.6;;;15.7;;
51515;SDS011;37603;55.614;37.326;2022-09-21T01:52:39;18.0;;;15.0;;
51515;SDS011;37603;55.614;37.326;2022-09-21T01:58:38;17.2;;;14.7;;
51515;SDS011;37603;55.614;37.326;2022-09-21T02:04:36;18.4;;;14.7;;
51515;SDS011;37603;55.614;37.326;2022-09-21T02:10:37;18.8;;;15.6;;
51515;SDS011;37603;55.614;37.326;2022-09-21T02:16:35;19.9;;;16.1;;
51515;SDS011;37603;55.614;37.326;2022-09-21T02:22:34;20.6;;;16.4;;
51515;SDS011;37603;55.614;37.326;2022-09-21T02:28:34;17.3;;;14.7;;
51515;SDS011;37603;55.614;37.326;2022-09-21T02:34:31;18.2;;;15.2;;
51515;SDS011;37603;55.614;37.326;2022-09-21T02:40:29;20.3;;;16.4;;
51515;SDS011;37603;55.614;37.326;2022-09-21T02:46:29;20.0;;;17.1;;
51515;SDS011;37603;55.614;37.326;2022-09-21T02:52:27;18.8;;;16.1;;
51515;SDS011;37603;55.614;37.326;2022-09-21T02:58:26;15.8;;;12.6;;
51515;SDS011;37603;55.614;37.326;2022-09-21T03:04:24;15.3;;;12.7;;
51515;SDS011;37603;55.614;37.326;2022-09-21T03:10:23;14.1;;;11.6;;
51515;SDS011;37603;55.614;37.326;2022-09-21T03:16:22;16.4;;;13.7;;
51515;SDS011;37603;55.614;37.326;2022-09-21T03:22:21;14.5;;;10.5;;
51515;SDS011;37603;55.614;37.326;2022-09-21T03:28:20;11.4;;;10.2;;
51515;SDS011;37603;55.614;37.326;2022-09-21T03:34:18;12.4;;;10.0;;
51515;SDS011;37603;55.614;37.326;2022-09-21T03:40:17;13.3;;;11.2;;
51515;SDS011;37603;55.614;37.326;2022-09-21T03:46:16;16.5;;;11.4;;
51515;SDS011;37603;55.614;37.326;2022-09-21T03:52:15;13.8;;;10.6;;
51515;SDS011;37603;55.614;37.326;2022-09-21T03:58:14;14.7;;;11.2;;
51515;SDS011;37603;55.614;37.326;2022-09-21T04:04:13;12.8;;;10.0;;
51515;SDS011;37603;55.614;37.326;2022-09-21T04:10:13;12.6;;;9.0;;
51515;SDS011;37603;55.614;37.326;2022-09-21T04:16:10;12.1;;;9.7;;
51515;SDS011;37603;55.614;37.326;2022-09-21T04:22:09;11.4;;;9.5;;
51515;SDS011;37603;55.614;37.326;2022-09-21T04:28:08;15.0;;;11.1;;
51515;SDS011;37603;55.614;37.326;2022-09-21T04:34:08;15.8;;;12.3;;
51515;SDS011;37603;55.614;37.326;2022-09-21T04:40:06;16.7;;;12.3;;
51515;SDS011;37603;55.614;37.326;2022-09-21T04:46:05;13.6;;;10.9;;
51515;SDS011;37603;55.614;37.326;2022-09-21T04:52:04;16.8;;;11.8;;
51515;SDS011;37603;55.614;37.326;2022-09-21T04:58:03;18.8;;;13.5;;
51515;SDS011;37603;55.614;37.326;2022-09-21T05:04:01;16.8;;;12.9;;
51515;SDS011;37603;55.614;37.326;2022-09-21T05:10:00;15.2;;;12.3;;
51515;SDS011;37603;55.614;37.326;2022-09-21T05:16:00;17.1;;;13.3;;
51515;SDS011;37603;55.614;37.326;2022-09-21T05:21:58;16.7;;;12.5;;
51515;SDS011;37603;55.614;37.326;2022-09-21T05:27:57;12.5;;;10.3;;
51515;SDS011;37603;55.614;37.326;2022-09-21T05:33:57;13.0;;;9.3;;
51515;SDS011;37603;55.614;37.326;2022-09-21T05:39:55;15.2;;;11.6;;
51515;SDS011;37603;55.614;37.326;2022-09-21T05:45:57;21.7;;;15.0;;
51515;SDS011;37603;55.614;37.326;2022-09-21T05:51:56;17.6;;;14.4;;
51515;SDS011;37603;55.614;37.326;2022-09-21T05:57:54;21.8;;;14.0;;
51515;SDS011;37603;55.614;37.326;2022-09-21T06:03:51;18.4;;;12.6;;
51515;SDS011;37603;55.614;37.326;2022-09-21T06:09:50;17.7;;;12.7;;
51515;SDS011;37603;55.614;37.326;2022-09-21T06:15:49;20.7;;;12.7;;
51515;SDS011;37603;55.614;37.326;2022-09-21T06:21:49;18.5;;;11.6;;
51515;SDS011;37603;55.614;37.326;2022-09-21T06:27:48;18.4;;;11.3;;
51515;SDS011;37603;55.614;37.326;2022-09-21T06:33:47;14.4;;;10.1;;
51515;SDS011;37603;55.614;37.326;2022-09-21T06:39:46;15.8;;;10.5;;
51515;SDS011;37603;55.614;37.326;2022-09-21T06:45:51;18.7;;;9.3;;
51515;SDS011;37603;55.614;37.326;2022-09-21T06:51:46;11.7;;;8.2;;
51515;SDS011;37603;55.614;37.326;2022-09-21T06:57:43;12.4;;;7.9;;
51515;SDS011;37603;55.614;37.326;2022-09-21T07:03:43;12.2;;;7.9;;
51515;SDS011;37603;55.614;37.326;2022-09-21T07:09:42;11.5;;;7.0;;
51515;SDS011;37603;55.614;37.326;2022-09-21T07:15:41;12.1;;;7.2;;
51515;SDS011;37603;55.614;37.326;2022-09-21T07:21:40;14.0;;;8.4;;
51515;SDS011;37603;55.614;37.326;2022-09-21T07:27:39;10.2;;;7.7;;
51515;SDS011;37603;55.614;37.326;2022-09-21T07:33:39;14.3;;;9.8;;
51515;SDS011;37603;55.614;37.326;2022-09-21T07:39:38;11.9;;;7.8;;
51515;SDS011;37603;55.614;37.326;2022-09-21T07:45:37;19.7;;;12.3;;
51515;SDS011;37603;55.614;37.326;2022-09-21T07:51:36;12.3;;;8.0;;
51515;SDS011;37603;55.614;37.326;2022-09-21T07:57:35;17.0;;;9.9;;
51515;SDS011;37603;55.614;37.326;2022-09-21T08:03:35;20.6;;;13.6;;
51515;SDS011;37603;55.614;37.326;2022-09-21T08:09:34;13.2;;;7.9;;
51515;SDS011;37603;55.614;37.326;2022-09-21T08:15:33;8.3;;;5.6;;
51515;SDS011;37603;55.614;37.326;2022-09-21T08:21:32;13.7;;;8.7;;
51515;SDS011;37603;55.614;37.326;2022-09-21T08:27:32;8.6;;;6.0;;
51515;SDS011;37603;55.614;37.326;2022-09-21T08:33:31;8.7;;;4.8;;
51515;SDS011;37603;55.614;37.326;2022-09-21T08:39:30;6.6;;;5.0;;
51515;SDS011;37603;55.614;37.326;2022-09-21T08:45:32;10.5;;;6.3;;
51515;SDS011;37603;55.614;37.326;2022-09-21T08:51:30;10.3;;;5.8;;
51515;SDS011;37603;55.614;37.326;2022-09-21T08:57:29;7.1;;;4.4;;
51515;SDS011;37603;55.614;37.326;2022-09-21T09:03:30;6.8;;;4.4;;
51515;SDS011;37603;55.614;37.326;2022-09-21T09:09:31;7.6;;;4.3;;
51515;SDS011;37603;55.614;37.326;2022-09-21T09:15:31;5.9;;;4.6;;
51515;SDS011;37603;55.614;37.326;2022-09-21T09:21:26;8.4;;;5.6;;
51515;SDS011;37603;55.614;37.326;2022-09-21T09:27:26;10.1;;;6.3;;
51515;SDS011;37603;55.614;37.326;2022-09-21T09:33:25;9.5;;;6.7;;
51515;SDS011;37603;55.614;37.326;2022-09-21T09:39:23;12.4;;;7.1;;
51515;SDS011;37603;55.614;37.326;2022-09-21T09:45:26;10.1;;;7.5;;
51515;SDS011;37603;55.614;37.326;2022-09-21T09:51:22;10.9;;;6.5;;
51515;SDS011;37603;55.614;37.326;2022-09-21T09:57:24;9.8;;;5.9;;
51515;SDS011;37603;55.614;37.326;2022-09-21T10:03:21;7.6;;;5.4;;
51515;SDS011;37603;55.614;37.326;2022-09-21T10:09:24;10.3;;;5.1;;
51515;SDS011;37603;55.614;37.326;2022-09-21T10:15:19;8.6;;;4.3;;
51515;SDS011;37603;55.614;37.326;2022-09-21T10:21:20;6.3;;;4.0;;
51515;SDS011;37603;55.614;37.326;2022-09-21T10:27:20;6.4;;;4.0;;
51515;SDS011;37603;55.614;37.326;2022-09-21T10:33:18;6.6;;;4.1;;
51515;SDS011;37603;55.614;37.326;2022-09-21T10:39:17;8.9;;;4.3;;
51515;SDS011;37603;55.614;37.326;2022-09-21T10:45:16;8.0;;;4.4;;
51515;SDS011;37603;55.614;37.326;2022-09-21T10:51:19;6.9;;;4.6;;
51515;SDS011;37603;55.614;37.326;2022-09-21T10:57:15;8.3;;;4.7;;
51515;SDS011;37603;55.614;37.326;2022-09-21T11:09:15;8.4;;;4.5;;
51515;SDS011;37603;55.614;37.326;2022-09-21T11:15:16;6.7;;;4.0;;
51515;SDS011;37603;55.614;37.326;2022-09-21T11:21:13;6.9;;;4.4;;
51515;SDS011;37603;55.614;37.326;2022-09-21T11:27:12;6.3;;;3.1;;
51515;SDS011;37603;55.614;37.326;2022-09-21T11:33:14;7.9;;;4.0;;
51515;SDS011;37603;55.614;37.326;2022-09-21T11:39:12;5.7;;;3.4;;
51515;SDS011;37603;55.614;37.326;2022-09-21T11:45:12;5.0;;;3.4;;
51515;SDS011;37603;55.614;37.326;2022-09-21T11:51:12;6.2;;;3.9;;
51515;SDS011;37603;55.614;37.326;2022-09-21T11:57:08;7.7;;;4.2;;
51515;SDS011;37603;55.614;37.326;2022-09-21T12:15:07;7.3;;;4.2;;
51515;SDS011;37603;55.614;37.326;2022-09-21T12:21:07;11.4;;;4.7;;
51515;SDS011;37603;55.614;37.326;2022-09-21T12:27:07;5.5;;;4.1;;
51515;SDS011;37603;55.614;37.326;2022-09-21T12:33:04;7.4;;;4.1;;
51515;SDS011;37603;55.614;37.326;2022-09-21T12:39:04;7.5;;;4.2;;
51515;SDS011;37603;55.614;37.326;2022-09-21T12:45:03;6.6;;;4.1;;
51515;SDS011;37603;55.614;37.326;2022-09-21T12:51:03;6.1;;;4.1;;
51515;SDS011;37603;55.614;37.326;2022-09-21T12:57:01;7.5;;;4.3;;
51515;SDS011;37603;55.614;37.326;2022-09-21T13:03:00;8.0;;;4.5;;
51515;SDS011;37603;55.614;37.326;2022-09-21T13:08:59;5.8;;;4.1;;
51515;SDS011;37603;55.614;37.326;2022-09-21T13:15:00;6.5;;;4.1;;
51515;SDS011;37603;55.614;37.326;2022-09-21T13:20:57;7.9;;;4.4;;
51515;SDS011;37603;55.614;37.326;2022-09-21T13:26:57;7.6;;;4.9;;
51515;SDS011;37603;55.614;37.326;2022-09-21T13:32:56;8.8;;;4.6;;
51515;SDS011;37603;55.614;37.326;2022-09-21T13:38:56;7.4;;;4.4;;
51515;SDS011;37603;55.614;37.326;2022-09-21T13:44:54;9.0;;;4.1;;
51515;SDS011;37603;55.614;37.326;2022-09-21T13:50:55;8.7;;;4.3;;
51515;SDS011;37603;55.614;37.326;2022-09-21T13:56:57;6.8;;;4.1;;
51515;SDS011;37603;55.614;37.326;2022-09-21T14:02:54;8.0;;;3.8;;
51515;SDS011;37603;55.614;37.326;2022-09-21T14:08:52;5.6;;;3.4;;
51515;SDS011;37603;55.614;37.326;2022-09-21T14:26:51;9.1;;;3.5;;
51515;SDS011;37603;55.614;37.326;2022-09-21T14:32:49;7.8;;;3.3;;
51515;SDS011;37603;55.614;37.326;2022-09-21T14:38:48;7.2;;;3.4;;
51515;SDS011;37603;55.614;37.326;2022-09-21T14:44:47;4.9;;;3.4;;
51515;SDS011;37603;55.614;37.326;2022-09-21T14:50:46;7.4;;;3.2;;
51515;SDS011;37603;55.614;37.326;2022-09-21T14:56:49;10.1;;;3.9;;
51515;SDS011;37603;55.614;37.326;2022-09-21T15:02:44;5.2;;;3.2;;
51515;SDS011;37603;55.614;37.326;2022-09-21T15:08:45;5.6;;;3.2;;
51515;SDS011;37603;55.614;37.326;2022-09-21T15:14:43;5.9;;;3.2;;
51515;SDS011;37603;55.614;37.326;2022-09-21T15:20:42;6.9;;;4.1;;
51515;SDS011;37603;55.614;37.326;2022-09-21T15:26:41;7.4;;;3.2;;
51515;SDS011;37603;55.614;37.326;2022-09-21T15:32:41;5.8;;;3.4;;
51515;SDS011;37603;55.614;37.326;2022-09-21T15:38:39;8.4;;;3.5;;
51515;SDS011;37603;55.614;37.326;2022-09-21T15:44:39;8.0;;;5.0;;
51515;SDS011;37603;55.614;37.326;2022-09-21T15:50:38;7.5;;;5.2;;
51515;SDS011;37603;55.614;37.326;2022-09-21T15:56:37;9.1;;;5.2;;
51515;SDS011;37603;55.614;37.326;2022-09-21T16:02:37;6.6;;;4.2;;
51515;SDS011;37603;55.614;37.326;2022-09-21T16:08:35;4.2;;;2.3;;
51515;SDS011;37603;55.614;37.326;2022-09-21T16:14:34;4.0;;;2.6;;
51515;SDS011;37603;55.614;37.326;2022-09-21T16:20:38;3.3;;;2.6;;
51515;SDS011;37603;55.614;37.326;2022-09-21T16:26:36;4.2;;;2.3;;
51515;SDS011;37603;55.614;37.326;2022-09-21T16:32:32;4.4;;;2.8;;
51515;SDS011;37603;55.614;37.326;2022-09-21T16:38:31;5.3;;;3.1;;
51515;SDS011;37603;55.614;37.326;2022-09-21T16:44:30;5.5;;;3.2;;
51515;SDS011;37603;55.614;37.326;2022-09-21T16:50:29;6.7;;;4.9;;
51515;SDS011;37603;55.614;37.326;2022-09-21T16:56:28;7.4;;;4.2;;
51515;SDS011;37603;55.614;37.326;2022-09-21T17:02:27;6.7;;;3.9;;
51515;SDS011;37603;55.614;37.326;2022-09-21T17:08:27;6.0;;;3.7;;
51515;SDS011;37603;55.614;37.326;2022-09-21T17:14:26;4.2;;;3.3;;
51515;SDS011;37603;55.614;37.326;2022-09-21T17:20:26;4.7;;;3.4;;
51515;SDS011;37603;55.614;37.326;2022-09-21T17:26:24;3.5;;;2.7;;
51515;SDS011;37603;55.614;37.326;2022-09-21T17:32:23;5.2;;;2.6;;
51515;SDS011;37603;55.614;37.326;2022-09-21T17:38:22;3.4;;;2.1;;
51515;SDS011;37603;55.614;37.326;2022-09-21T17:44:37;3.7;;;2.8;;
51515;SDS011;37603;55.614;37.326;2022-09-21T17:50:21;3.9;;;2.6;;
51515;SDS011;37603;55.614;37.326;2022-09-21T17:56:22;4.3;;;3.5;;
51515;SDS011;37603;55.614;37.326;2022-09-21T18:02:20;5.1;;;3.3;;
51515;SDS011;37603;55.614;37.326;2022-09-21T18:08:18;3.9;;;2.7;;
51515;SDS011;37603;55.614;37.326;2022-09-21T18:20:19;4.5;;;3.4;;
51515;SDS011;37603;55.614;37.326;2022-09-21T18:26:15;5.7;;;4.1;;
51515;SDS011;37603;55.614;37.326;2022-09-21T18:32:18;35.8;;;25.1;;
51515;SDS011;37603;55.614;37.326;2022-09-21T18:38:16;10.2;;;7.0;;
51515;SDS011;37603;55.614;37.326;2022-09-21T18:44:14;7.3;;;5.8;;
51515;SDS011;37603;55.614;37.326;2022-09-21T18:50:15;26.8;;;18.2;;
51515;SDS011;37603;55.614;37.326;2022-09-21T18:56:12;8.3;;;6.2;;
51515;SDS011;37603;55.614;37.326;2022-09-21T19:02:10;8.6;;;6.0;;
51515;SDS011;37603;55.614;37.326;2022-09-21T19:08:09;7.6;;;5.9;;
51515;SDS011;37603;55.614;37.326;2022-09-21T19:14:09;8.7;;;6.6;;
51515;SDS011;37603;55.614;37.326;2022-09-21T19:20:11;6.5;;;4.9;;
51515;SDS011;37603;55.614;37.326;2022-09-21T19:26:09;7.2;;;5.2;;
51515;SDS011;37603;55.614;37.326;2022-09-21T19:32:13;7.4;;;5.7;;
51515;SDS011;37603;55.614;37.326;2022-09-21T19:38:04;7.5;;;5.6;;
51515;SDS011;37603;55.614;37.326;2022-09-21T19:44:06;8.2;;;6.3;;
51515;SDS011;37603;55.614;37.326;2022-09-21T19:50:07;7.6;;;6.5;;
51515;SDS011;37603;55.614;37.326;2022-09-21T19:56:01;8.9;;;6.4;;
51515;SDS011;37603;55.614;37.326;2022-09-21T20:02:01;8.3;;;6.4;;
51515;SDS011;37603;55.614;37.326;2022-09-21T20:08:00;7.9;;;5.6;;
51515;SDS011;37603;55.614;37.326;2022-09-21T20:14:01;7.1;;;5.6;;
51515;SDS011;37603;55.614;37.326;2022-09-21T20:19:58;7.7;;;5.0;;
51515;SDS011;37603;55.614;37.326;2022-09-21T20:25:57;6.5;;;5.2;;
51515;SDS011;37603;55.614;37.326;2022-09-21T20:31:55;7.2;;;5.8;;
51515;SDS011;37603;55.614;37.326;2022-09-21T20:37:54;8.8;;;5.6;;
51515;SDS011;37603;55.614;37.326;2022-09-21T20:43:53;7.3;;;6.1;;
51515;SDS011;37603;55.614;37.326;2022-09-21T20:49:52;8.7;;;6.1;;
51515;SDS011;37603;55.614;37.326;2022-09-21T20:55:52;7.0;;;5.5;;
51515;SDS011;37603;55.614;37.326;2022-09-21T21:01:51;9.8;;;6.1;;
51515;SDS011;37603;55.614;37.326;2022-09-21T21:07:50;7.7;;;5.9;;
51515;SDS011;37603;55.614;37.326;2022-09-21T21:13:49;8.1;;;6.4;;
51515;SDS011;37603;55.614;37.326;2022-09-21T21:19:48;7.0;;;6.1;;
51515;SDS011;37603;55.614;37.326;2022-09-21T21:25:47;8.7;;;6.7;;
51515;SDS011;37603;55.614;37.326;2022-09-21T21:31:46;9.5;;;6.9;;
51515;SDS011;37603;55.614;37.326;2022-09-21T21:37:45;8.9;;;6.8;;
51515;SDS011;37603;55.614;37.326;2022-09-21T21:43:44;8.5;;;6.3;;
51515;SDS011;37603;55.614;37.326;2022-09-21T21:49:43;8.1;;;6.4;;
51515;SDS011;37603;55.614;37.326;2022-09-21T21:55:43;9.5;;;7.3;;
51515;SDS011;37603;55.614;37.326;2022-09-21T22:01:42;9.1;;;7.1;;
51515;SDS011;37603;55.614;37.326;2022-09-21T22:13:40;10.9;;;7.8;;
51515;SDS011;37603;55.614;37.326;2022-09-21T22:19:39;7.9;;;6.5;;
51515;SDS011;37603;55.614;37.326;2022-09-21T22:25:38;8.3;;;6.6;;
51515;SDS011;37603;55.614;37.326;2022-09-21T22:31:38;7.6;;;6.4;;
51515;SDS011;37603;55.614;37.326;2022-09-21T22:37:36;8.2;;;6.8;;
51515;SDS011;37603;55.614;37.326;2022-09-21T22:43:35;9.1;;;7.2;;
51515;SDS011;37603;55.614;37.326;2022-09-21T22:49:34;7.0;;;6.3;;
51515;SDS011;37603;55.614;37.326;2022-09-21T22:55:33;7.3;;;6.6;;
51515;SDS011;37603;55.614;37.326;2022-09-21T23:01:33;8.3;;;7.0;;
51515;SDS011;37603;55.614;37.326;2022-09-21T23:07:32;10.1;;;7.9;;
51515;SDS011;37603;55.614;37.326;2022-09-21T23:13:31;8.4;;;6.7;;
51515;SDS011;37603;55.614;37.326;2022-09-21T23:19:30;6.8;;;6.1;;
51515;SDS011;37603;55.614;37.326;2022-09-21T23:25:29;7.0;;;6.3;;
51515;SDS011;37603;55.614;37.326;2022-09-21T23:31:29;6.5;;;5.8;;
51515;SDS011;37603;55.614;37.326;2022-09-21T23:37:27;6.9;;;6.2;;
51515;SDS011;37603;55.614;37.326;2022-09-21T23:43:26;7.6;;;6.1;;
51515;SDS011;37603;55.614;37.326;2022-09-21T23:49:25;7.3;;;6.1;;
51515;SDS011;37603;55.614;37.326;2022-09-21T23:55:24;6.9;;;6.2;;
